Karin S — V2BM6 — position and weather

sailwx.info

Track history (hours):
 
Tides and Currents Weather Stations Pressure Air Temp Water Temp Dewpoint Dewpoint Depression Visibility Wind Speed Wind Dir Waves Ship Positions

Karin S

Last reported at 2015-May-19 09:18 UTC. Time now 2015-May-22 19:07 UTC.
Position N 36°47' E 003°07'.

Length 148 m; draft 9 m.

Type: Cargo ship. MMSI: 304871000.

Date/timePositionNaut miles runAvg speedWind from/ knotsBaromVisibWave heightAir tempDewpointWater temp
2015-May-19 09:18N 36°47' E 003°07'0 0.0
2015-May-19 08:31N 36°47' E 003°07'0 0.1
2015-May-19 07:30N 36°47' E 003°07'0 0.1
2015-May-19 05:30N 36°48' E 003°07'0 0.1
2015-May-19 04:30N 36°47' E 003°07'0 0.0
2015-May-19 03:24N 36°47' E 003°07'0 0.0
2015-May-19 02:30N 36°48' E 003°07'0 0.0
2015-May-19 01:24N 36°47' E 003°07'0 0.0
2015-May-19 00:24N 36°47' E 003°07'0 0.0
2015-May-18 23:30N 36°47' E 003°07'0 0.0
2015-May-18 21:30N 36°47' E 003°07'0 0.0
2015-May-18 20:12N 36°47' E 003°07'0 0.0
2015-May-18 19:12N 36°47' E 003°07'0 0.0
2015-May-18 18:30N 36°47' E 003°07'0 0.0
2015-May-18 17:30N 36°47' E 003°07'  
2015-May-16 12:25N 39°24' W 000°16'3 4.0
2015-May-16 11:33N 39°26' W 000°19'0 0.0
2015-May-16 10:33N 39°26' W 000°19'0 0.0
2015-May-16 09:33N 39°26' W 000°19'0 0.0
2015-May-16 08:33N 39°26' W 000°19'0 0.0
2015-May-16 07:33N 39°26' W 000°19'0 0.0
2015-May-16 06:33N 39°26' W 000°19'0 0.0
2015-May-16 05:33N 39°26' W 000°19'0 0.0
2015-May-16 04:33N 39°26' W 000°19'0 0.0
2015-May-16 03:33N 39°26' W 000°19'0 0.0
2015-May-16 02:29N 39°26' W 000°19'0 0.0
2015-May-16 01:29N 39°26' W 000°19'0 0.0
2015-May-16 00:26N 39°26' W 000°19'0 0.0
2015-May-15 23:29N 39°26' W 000°19'0 0.0
2015-May-15 22:32N 39°26' W 000°19'0 0.0
2015-May-15 21:33N 39°26' W 000°19'0 0.0
2015-May-15 20:30N 39°26' W 000°19'0 0.0
2015-May-15 19:09N 39°26' W 000°19'0 0.0
2015-May-15 18:33N 39°26' W 000°19'0 0.0
2015-May-15 17:33N 39°26' W 000°19'2 2.3
2015-May-15 16:33N 39°25' W 000°17'18011.9
2015-May-15 01:30N 37°20' E 002°28'1412.0
2015-May-15 00:21N 37°10' E 002°40'1012.2
2015-May-14 23:32N 37°04' E 002°50'1212.3
2015-May-14 22:33N 36°55' E 002°60'1010.1
2015-May-14 21:32N 36°46' E 003°05'1 0.0
2015-May-14 02:23N 36°46' E 003°04'0 0.0
2015-May-14 00:06N 36°46' E 003°04'0 0.0
2015-May-13 23:33N 36°46' E 003°04'0 0.0
2015-May-13 20:29N 36°46' E 003°04'0 0.0
2015-May-13 19:33N 36°46' E 003°04'0 0.0
2015-May-13 18:33N 36°46' E 003°04'0 0.0
2015-May-13 17:29N 36°46' E 003°04'0 0.0
2015-May-13 15:33N 36°46' E 003°04'0 0.0
2015-May-13 14:33N 36°46' E 003°04'0 0.0
2015-May-13 13:33N 36°46' E 003°04'0 0.0
2015-May-13 12:31N 36°46' E 003°04'0 0.0
2015-May-13 11:29N 36°46' E 003°04'0 0.0
2015-May-13 10:33N 36°46' E 003°04'0 0.0
2015-May-13 09:33N 36°46' E 003°04'0 0.0
2015-May-13 02:29N 36°46' E 003°04'0 0.0
2015-May-12 22:21N 36°46' E 003°04'0 0.0
2015-May-12 12:22N 36°46' E 003°04'0 0.0
2015-May-12 11:33N 36°46' E 003°04'0 0.0
2015-May-12 04:09N 36°46' E 003°04'0 0.0
2015-May-12 03:32N 36°46' E 003°04'0 0.0
2015-May-12 02:32N 36°46' E 003°04'0 0.0
2015-May-12 01:28N 36°46' E 003°04'0 0.0
2015-May-12 00:32N 36°46' E 003°04'0 0.0
2015-May-11 23:33N 36°46' E 003°04'0 0.0
2015-May-11 22:33N 36°46' E 003°04'0 0.0
2015-May-11 21:33N 36°46' E 003°04'0 0.0
2015-May-11 20:29N 36°46' E 003°04'0 0.0
2015-May-11 19:05N 36°46' E 003°04'0 0.0
2015-May-11 18:33N 36°46' E 003°04'0 0.0
2015-May-11 17:26N 36°46' E 003°04'0 0.0
2015-May-11 16:26N 36°46' E 003°04'0 0.0
2015-May-11 15:33N 36°46' E 003°04'0 0.0
2015-May-11 14:31N 36°46' E 003°04'0 0.0
2015-May-11 13:32N 36°46' E 003°04'0 0.0
2015-May-11 12:33N 36°46' E 003°04'0 0.0
2015-May-11 11:30N 36°46' E 003°04'0 0.0
2015-May-11 10:27N 36°46' E 003°04'0 0.0
2015-May-11 08:32N 36°46' E 003°04'0 0.0
2015-May-11 07:16N 36°46' E 003°04'0 0.0
2015-May-11 06:32N 36°46' E 003°04'0 0.0
2015-May-11 03:27N 36°46' E 003°04'0 0.0
2015-May-11 01:05N 36°46' E 003°04'0 0.0
2015-May-11 00:27N 36°46' E 003°04'0 0.0
2015-May-10 23:33N 36°46' E 003°04'0 0.0
2015-May-10 15:13N 36°46' E 003°04'0 0.0
2015-May-10 08:30N 36°46' E 003°04'1 0.6
2015-May-10 06:26N 36°46' E 003°06'2 0.5
2015-May-10 03:24N 36°48' E 003°06'0 0.0
2015-May-10 02:24N 36°48' E 003°06'0 0.0
2015-May-10 01:06N 36°48' E 003°06'0 0.0
2015-May-10 00:18N 36°48' E 003°06'0 0.0
2015-May-09 23:29N 36°48' E 003°06'0 0.0
2015-May-09 22:29N 36°48' E 003°06'0 0.0
2015-May-09 21:26N 36°48' E 003°06'0 0.0
2015-May-09 19:33N 36°48' E 003°06'0 0.0
2015-May-09 18:33N 36°48' E 003°06'0 0.0
2015-May-09 17:27N 36°48' E 003°06'0 0.0
2015-May-09 16:07N 36°48' E 003°06'0 0.0
2015-May-09 15:24N 36°48' E 003°06'  
Track history (hours):
 
Tides and Currents Weather Stations Pressure Air Temp Water Temp Dewpoint Dewpoint Depression Visibility Wind Speed Wind Dir Waves Ship Positions

Karin S

Last reported at 2015-May-19 09:18 UTC. Time now 2015-May-22 19:07 UTC.
Position N 36°47' E 003°07'.

Length 148 m; draft 9 m.

Type: Cargo ship. MMSI: 304871000.

Date/timePositionNaut miles runAvg speedWind from/ knotsBaromVisibWave heightAir tempDewpointWater temp
2015-May-19 09:18N 36°47' E 003°07'0 0.0
2015-May-19 08:31N 36°47' E 003°07'0 0.1
2015-May-19 07:30N 36°47' E 003°07'0 0.1
2015-May-19 05:30N 36°48' E 003°07'0 0.1
2015-May-19 04:30N 36°47' E 003°07'0 0.0
2015-May-19 03:24N 36°47' E 003°07'0 0.0
2015-May-19 02:30N 36°48' E 003°07'0 0.0
2015-May-19 01:24N 36°47' E 003°07'0 0.0
2015-May-19 00:24N 36°47' E 003°07'0 0.0
2015-May-18 23:30N 36°47' E 003°07'0 0.0
2015-May-18 21:30N 36°47' E 003°07'0 0.0
2015-May-18 20:12N 36°47' E 003°07'0 0.0
2015-May-18 19:12N 36°47' E 003°07'0 0.0
2015-May-18 18:30N 36°47' E 003°07'0 0.0
2015-May-18 17:30N 36°47' E 003°07'  
2015-May-16 12:25N 39°24' W 000°16'3 4.0
2015-May-16 11:33N 39°26' W 000°19'0 0.0
2015-May-16 10:33N 39°26' W 000°19'0 0.0
2015-May-16 09:33N 39°26' W 000°19'0 0.0
2015-May-16 08:33N 39°26' W 000°19'0 0.0
2015-May-16 07:33N 39°26' W 000°19'0 0.0
2015-May-16 06:33N 39°26' W 000°19'0 0.0
2015-May-16 05:33N 39°26' W 000°19'0 0.0
2015-May-16 04:33N 39°26' W 000°19'0 0.0
2015-May-16 03:33N 39°26' W 000°19'0 0.0
2015-May-16 02:29N 39°26' W 000°19'0 0.0
2015-May-16 01:29N 39°26' W 000°19'0 0.0
2015-May-16 00:26N 39°26' W 000°19'0 0.0
2015-May-15 23:29N 39°26' W 000°19'0 0.0
2015-May-15 22:32N 39°26' W 000°19'0 0.0
2015-May-15 21:33N 39°26' W 000°19'0 0.0
2015-May-15 20:30N 39°26' W 000°19'0 0.0
2015-May-15 19:09N 39°26' W 000°19'0 0.0
2015-May-15 18:33N 39°26' W 000°19'0 0.0
2015-May-15 17:33N 39°26' W 000°19'2 2.3
2015-May-15 16:33N 39°25' W 000°17'18011.9
2015-May-15 01:30N 37°20' E 002°28'1412.0
2015-May-15 00:21N 37°10' E 002°40'1012.2
2015-May-14 23:32N 37°04' E 002°50'1212.3
2015-May-14 22:33N 36°55' E 002°60'1010.1
2015-May-14 21:32N 36°46' E 003°05'1 0.0
2015-May-14 02:23N 36°46' E 003°04'0 0.0
2015-May-14 00:06N 36°46' E 003°04'0 0.0
2015-May-13 23:33N 36°46' E 003°04'0 0.0
2015-May-13 20:29N 36°46' E 003°04'0 0.0
2015-May-13 19:33N 36°46' E 003°04'0 0.0
2015-May-13 18:33N 36°46' E 003°04'0 0.0
2015-May-13 17:29N 36°46' E 003°04'0 0.0
2015-May-13 15:33N 36°46' E 003°04'0 0.0
2015-May-13 14:33N 36°46' E 003°04'0 0.0
2015-May-13 13:33N 36°46' E 003°04'0 0.0
2015-May-13 12:31N 36°46' E 003°04'0 0.0
2015-May-13 11:29N 36°46' E 003°04'0 0.0
2015-May-13 10:33N 36°46' E 003°04'0 0.0
2015-May-13 09:33N 36°46' E 003°04'0 0.0
2015-May-13 02:29N 36°46' E 003°04'0 0.0
2015-May-12 22:21N 36°46' E 003°04'0 0.0
2015-May-12 12:22N 36°46' E 003°04'0 0.0
2015-May-12 11:33N 36°46' E 003°04'0 0.0
2015-May-12 04:09N 36°46' E 003°04'0 0.0
2015-May-12 03:32N 36°46' E 003°04'0 0.0
2015-May-12 02:32N 36°46' E 003°04'0 0.0
2015-May-12 01:28N 36°46' E 003°04'0 0.0
2015-May-12 00:32N 36°46' E 003°04'0 0.0
2015-May-11 23:33N 36°46' E 003°04'0 0.0
2015-May-11 22:33N 36°46' E 003°04'0 0.0
2015-May-11 21:33N 36°46' E 003°04'0 0.0
2015-May-11 20:29N 36°46' E 003°04'0 0.0
2015-May-11 19:05N 36°46' E 003°04'0 0.0
2015-May-11 18:33N 36°46' E 003°04'0 0.0
2015-May-11 17:26N 36°46' E 003°04'0 0.0
2015-May-11 16:26N 36°46' E 003°04'0 0.0
2015-May-11 15:33N 36°46' E 003°04'0 0.0
2015-May-11 14:31N 36°46' E 003°04'0 0.0
2015-May-11 13:32N 36°46' E 003°04'0 0.0
2015-May-11 12:33N 36°46' E 003°04'0 0.0
2015-May-11 11:30N 36°46' E 003°04'0 0.0
2015-May-11 10:27N 36°46' E 003°04'0 0.0
2015-May-11 08:32N 36°46' E 003°04'0 0.0
2015-May-11 07:16N 36°46' E 003°04'0 0.0
2015-May-11 06:32N 36°46' E 003°04'0 0.0
2015-May-11 03:27N 36°46' E 003°04'0 0.0
2015-May-11 01:05N 36°46' E 003°04'0 0.0
2015-May-11 00:27N 36°46' E 003°04'0 0.0
2015-May-10 23:33N 36°46' E 003°04'0 0.0
2015-May-10 15:13N 36°46' E 003°04'0 0.0
2015-May-10 08:30N 36°46' E 003°04'1 0.6
2015-May-10 06:26N 36°46' E 003°06'2 0.5
2015-May-10 03:24N 36°48' E 003°06'0 0.0
2015-May-10 02:24N 36°48' E 003°06'0 0.0
2015-May-10 01:06N 36°48' E 003°06'0 0.0
2015-May-10 00:18N 36°48' E 003°06'0 0.0
2015-May-09 23:29N 36°48' E 003°06'0 0.0
2015-May-09 22:29N 36°48' E 003°06'0 0.0
2015-May-09 21:26N 36°48' E 003°06'0 0.0
2015-May-09 19:33N 36°48' E 003°06'0 0.0
2015-May-09 18:33N 36°48' E 003°06'0 0.0
2015-May-09 17:27N 36°48' E 003°06'0 0.0
2015-May-09 16:07N 36°48' E 003°06'0 0.0
2015-May-09 15:24N 36°48' E 003°06'  

Dump ship's entire track history